createdAt,value
2023-05-06T00:00:20.879Z,93.90
2023-05-06T00:02:49.182Z,93.80
2023-05-06T00:05:18.897Z,93.70
2023-05-06T00:07:47.272Z,93.70
2023-05-06T00:10:15.969Z,93.80
2023-05-06T00:12:44.244Z,93.60
2023-05-06T00:15:13.974Z,93.80
2023-05-06T00:17:42.192Z,93.70
2023-05-06T00:20:11.449Z,93.60
2023-05-06T00:22:39.646Z,93.70
2023-05-06T00:25:09.019Z,93.50
2023-05-06T00:27:37.466Z,93.30
2023-05-06T00:30:07.228Z,93.30
2023-05-06T00:32:36.894Z,93.50
2023-05-06T00:35:06.202Z,93.60
2023-05-06T00:37:34.451Z,93.70
2023-05-06T00:40:03.524Z,93.50
2023-05-06T00:42:31.741Z,93.70
2023-05-06T00:44:59.963Z,93.50
2023-05-06T00:47:28.231Z,93.50
2023-05-06T00:50:00.875Z,93.70
2023-05-06T00:52:29.459Z,93.60
2023-05-06T00:54:58.614Z,93.10
2023-05-06T00:57:27.025Z,93.20
2023-05-06T00:59:55.885Z,93.10
2023-05-06T01:02:30.628Z,93.30
2023-05-06T01:05:07.595Z,93.00
2023-05-06T01:07:44.606Z,92.60
2023-05-06T01:10:23.066Z,93.00
2023-05-06T01:13:00.291Z,93.30
2023-05-06T01:15:36.337Z,93.20
2023-05-06T01:18:12.337Z,92.60
2023-05-06T01:20:43.634Z,91.60
2023-05-06T01:23:14.858Z,92.10
2023-05-06T01:25:43.357Z,92.20
2023-05-06T01:28:13.024Z,92.30
2023-05-06T01:30:52.761Z,92.70
2023-05-06T01:33:32.806Z,92.40
2023-05-06T01:36:12.964Z,92.80
2023-05-06T01:38:51.661Z,92.90
2023-05-06T01:41:21.684Z,93.00
2023-05-06T01:43:51.264Z,93.00
2023-05-06T01:46:22.985Z,92.50
2023-05-06T01:48:55.085Z,92.60
2023-05-06T01:51:23.514Z,92.70
2023-05-06T01:53:53.091Z,92.80
2023-05-06T01:56:21.765Z,92.70
2023-05-06T01:58:50.164Z,92.70
2023-05-06T02:01:18.375Z,92.50
2023-05-06T02:03:46.703Z,92.00
2023-05-06T02:06:15.008Z,92.20
2023-05-06T02:08:43.252Z,92.50
2023-05-06T02:11:12.858Z,92.20
2023-05-06T02:13:41.088Z,92.40
2023-05-06T02:16:09.710Z,92.80
2023-05-06T02:18:38.009Z,92.90
2023-05-06T02:21:06.240Z,93.00
2023-05-06T02:23:34.466Z,92.90
2023-05-06T02:26:02.703Z,92.20
2023-05-06T02:28:32.253Z,91.30
2023-05-06T02:31:00.501Z,91.20
2023-05-06T02:33:28.752Z,91.10
2023-05-06T02:35:56.937Z,91.50
2023-05-06T02:38:26.821Z,92.10
2023-05-06T02:40:55.025Z,92.20
2023-05-06T02:43:23.706Z,92.20
2023-05-06T02:45:53.788Z,92.10
2023-05-06T02:48:22.104Z,91.60
2023-05-06T02:50:50.349Z,92.10
2023-05-06T02:53:18.562Z,92.80
2023-05-06T02:55:46.772Z,92.30
2023-05-06T02:58:14.970Z,92.00
2023-05-06T03:00:43.198Z,91.50
2023-05-06T03:03:12.824Z,90.90
2023-05-06T03:05:41.121Z,91.50
2023-05-06T03:08:09.392Z,91.70
2023-05-06T03:10:37.608Z,91.70
2023-05-06T03:13:05.967Z,92.00
2023-05-06T03:15:34.227Z,92.00
2023-05-06T03:18:02.694Z,92.40
2023-05-06T03:20:32.253Z,92.50
2023-05-06T03:23:00.493Z,92.60
2023-05-06T03:25:28.680Z,92.70
2023-05-06T03:27:56.886Z,92.20
2023-05-06T03:30:25.064Z,91.80
2023-05-06T03:32:53.313Z,91.40
2023-05-06T03:35:21.636Z,90.80
2023-05-06T03:37:51.272Z,91.00
2023-05-06T03:40:19.497Z,91.70
2023-05-06T03:42:47.964Z,92.20
2023-05-06T03:45:16.157Z,92.50
2023-05-06T03:47:45.545Z,92.30
2023-05-06T03:50:14.035Z,91.70
2023-05-06T03:52:42.369Z,91.30
2023-05-06T03:55:12.690Z,91.00
2023-05-06T03:57:40.970Z,90.50
2023-05-06T04:00:10.878Z,91.10
2023-05-06T04:02:39.220Z,91.40
2023-05-06T04:05:09.164Z,91.10
2023-05-06T04:07:37.552Z,91.70
2023-05-06T04:10:07.618Z,92.20
2023-05-06T04:12:37.262Z,92.40
2023-05-06T04:15:07.559Z,92.20
2023-05-06T04:17:35.971Z,91.70
2023-05-06T04:20:11.768Z,92.30
2023-05-06T04:22:40.142Z,92.70
2023-05-06T04:25:10.380Z,92.60
2023-05-06T04:27:40.172Z,92.00
2023-05-06T04:30:10.367Z,91.40
2023-05-06T04:32:38.843Z,91.60
2023-05-06T04:35:09.093Z,91.80
2023-05-06T04:37:37.476Z,91.60
2023-05-06T04:40:07.257Z,91.30
2023-05-06T04:42:35.479Z,90.90
2023-05-06T04:45:06.288Z,91.50
2023-05-06T04:47:35.619Z,91.40
2023-05-06T04:50:04.454Z,91.90
2023-05-06T04:52:33.097Z,92.20
2023-05-06T04:55:01.288Z,92.20
2023-05-06T04:57:29.502Z,92.10
2023-05-06T04:59:57.830Z,92.10
2023-05-06T05:02:27.494Z,92.40
2023-05-06T05:04:55.785Z,92.70
2023-05-06T05:07:24.133Z,92.90
2023-05-06T05:09:52.340Z,93.10
2023-05-06T05:12:20.790Z,93.30
2023-05-06T05:14:49.060Z,93.50
2023-05-06T05:17:17.326Z,93.60
2023-05-06T05:19:46.998Z,93.70
2023-05-06T05:22:15.961Z,93.80
2023-05-06T05:24:44.133Z,93.80
2023-05-06T05:27:12.373Z,93.90
2023-05-06T05:29:40.612Z,94.00
2023-05-06T05:32:08.926Z,94.10
2023-05-06T05:34:37.173Z,94.00
2023-05-06T05:37:06.759Z,94.20
2023-05-06T05:39:34.996Z,94.20
2023-05-06T05:42:03.674Z,94.30
2023-05-06T05:44:33.773Z,94.50
2023-05-06T05:47:03.669Z,94.50
2023-05-06T05:49:31.901Z,94.50
2023-05-06T05:52:00.198Z,94.50
2023-05-06T05:54:30.356Z,94.40
2023-05-06T05:56:59.226Z,94.40
2023-05-06T05:59:28.624Z,94.40
2023-05-06T06:01:56.902Z,94.40
2023-05-06T06:04:25.856Z,94.40
2023-05-06T06:06:54.175Z,94.40
2023-05-06T06:09:22.927Z,94.30
2023-05-06T06:11:52.514Z,94.20
2023-05-06T06:14:20.734Z,94.20
2023-05-06T06:16:48.972Z,94.20
2023-05-06T06:19:17.209Z,94.20
2023-05-06T06:21:45.523Z,94.20
2023-05-06T06:24:14.178Z,94.10
2023-05-06T06:26:42.432Z,94.10
2023-05-06T06:29:12.348Z,94.00
2023-05-06T06:31:40.912Z,93.80
2023-05-06T06:34:09.751Z,93.90
2023-05-06T06:36:40.272Z,94.00
2023-05-06T06:39:08.483Z,94.10
2023-05-06T06:41:36.766Z,94.10
2023-05-06T06:44:05.370Z,94.10
2023-05-06T06:46:35.150Z,94.10
2023-05-06T06:49:03.362Z,93.90
2023-05-06T06:51:32.469Z,93.90
2023-05-06T06:54:00.755Z,93.70
2023-05-06T06:56:29.013Z,93.60
2023-05-06T06:58:57.205Z,92.90
2023-05-06T07:01:25.529Z,92.60
2023-05-06T07:03:55.154Z,92.30
2023-05-06T07:06:23.368Z,92.60
2023-05-06T07:08:51.562Z,92.50
2023-05-06T07:11:22.180Z,92.50
2023-05-06T07:13:50.354Z,92.30
2023-05-06T07:16:18.924Z,91.90
2023-05-06T07:18:47.952Z,92.20
2023-05-06T07:21:17.526Z,91.70
2023-05-06T07:23:45.967Z,91.80
2023-05-06T07:26:14.189Z,91.30
2023-05-06T07:28:42.378Z,90.90
2023-05-06T07:31:10.757Z,91.20
2023-05-06T07:33:39.013Z,91.10
2023-05-06T07:36:08.180Z,90.90
2023-05-06T07:38:37.769Z,90.00
2023-05-06T07:41:06.261Z,90.10
2023-05-06T07:43:34.761Z,89.90
2023-05-06T07:46:03.475Z,90.30
2023-05-06T07:48:32.718Z,90.40
2023-05-06T07:51:01.882Z,89.50
2023-05-06T07:53:30.128Z,89.20
2023-05-06T07:56:02.251Z,89.40
2023-05-06T07:58:31.331Z,89.90
2023-05-06T08:01:00.293Z,89.20
2023-05-06T08:03:28.714Z,89.40
2023-05-06T08:05:57.259Z,89.40
2023-05-06T08:08:27.933Z,89.70
2023-05-06T08:10:57.138Z,89.80
2023-05-06T08:13:28.184Z,89.50
2023-05-06T08:15:56.612Z,89.00
2023-05-06T08:18:25.042Z,88.30
2023-05-06T08:20:53.266Z,88.90
2023-05-06T08:23:22.136Z,89.00
2023-05-06T08:25:50.428Z,89.60
2023-05-06T08:28:18.810Z,89.20
2023-05-06T08:30:48.580Z,87.80
2023-05-06T08:33:16.956Z,87.00
2023-05-06T08:35:45.550Z,85.60
2023-05-06T08:38:15.098Z,86.50
2023-05-06T08:40:45.492Z,87.90
2023-05-06T08:43:18.527Z,87.50
2023-05-06T08:45:48.684Z,86.60
2023-05-06T08:48:16.971Z,86.30
2023-05-06T08:50:45.819Z,86.60
2023-05-06T08:53:14.972Z,85.50
2023-05-06T08:55:44.127Z,86.50
2023-05-06T08:58:15.686Z,86.20
2023-05-06T09:00:44.487Z,85.70
2023-05-06T09:03:14.098Z,85.50
2023-05-06T09:05:42.610Z,85.70
2023-05-06T09:08:11.684Z,86.20
2023-05-06T09:10:46.173Z,84.80
2023-05-06T09:13:16.461Z,85.50
2023-05-06T09:15:47.290Z,85.20
2023-05-06T09:18:17.986Z,86.00
2023-05-06T09:20:48.870Z,86.50
2023-05-06T09:23:19.146Z,85.90
2023-05-06T09:25:49.691Z,86.40
2023-05-06T09:28:18.008Z,85.90
2023-05-06T09:30:47.708Z,85.80
2023-05-06T09:33:17.781Z,86.30
2023-05-06T09:35:46.197Z,85.30
2023-05-06T09:38:14.433Z,81.40
2023-05-06T09:40:42.663Z,82.50
2023-05-06T09:43:10.954Z,82.60
2023-05-06T09:45:39.383Z,83.30
2023-05-06T09:48:10.307Z,81.60
2023-05-06T09:50:39.721Z,82.70
2023-05-06T09:53:08.462Z,80.90
2023-05-06T09:55:37.515Z,80.50
2023-05-06T09:58:08.089Z,81.50
2023-05-06T10:00:37.775Z,83.40
2023-05-06T10:03:07.119Z,82.10
2023-05-06T10:05:37.673Z,84.00
2023-05-06T10:08:09.665Z,84.10
2023-05-06T10:10:38.884Z,80.30
2023-05-06T10:13:07.226Z,80.80
2023-05-06T10:15:36.493Z,82.30
2023-05-06T10:18:06.798Z,81.90
2023-05-06T10:20:37.054Z,83.40
2023-05-06T10:23:20.850Z,84.30
2023-05-06T10:25:52.046Z,82.60
2023-05-06T10:28:31.142Z,82.60
2023-05-06T10:31:01.414Z,79.60
2023-05-06T10:33:30.706Z,81.00
2023-05-06T10:36:13.129Z,82.00
2023-05-06T10:38:45.642Z,81.40
2023-05-06T10:41:15.702Z,80.10
2023-05-06T10:43:45.364Z,80.20
2023-05-06T10:46:15.781Z,80.10
2023-05-06T10:49:18.326Z,77.60
2023-05-06T10:51:49.026Z,76.60
2023-05-06T10:54:25.696Z,77.40
2023-05-06T10:57:10.618Z,74.80
2023-05-06T10:59:38.941Z,75.80
2023-05-06T11:02:11.139Z,75.50
2023-05-06T11:04:40.023Z,74.70
2023-05-06T11:07:10.030Z,76.50
2023-05-06T11:09:58.720Z,77.30
2023-05-06T11:12:49.173Z,76.80
2023-05-06T11:15:25.205Z,75.90
2023-05-06T11:17:55.514Z,77.20
2023-05-06T11:20:25.741Z,75.90
2023-05-06T11:22:54.418Z,76.80
2023-05-06T11:25:43.580Z,75.50
2023-05-06T11:28:12.746Z,77.40
2023-05-06T11:30:44.083Z,75.30
2023-05-06T11:33:20.405Z,76.30
2023-05-06T11:35:49.613Z,77.90
2023-05-06T11:38:17.862Z,77.10
2023-05-06T11:40:47.625Z,72.60
2023-05-06T11:43:17.509Z,75.90
2023-05-06T11:45:47.630Z,73.50
2023-05-06T11:48:17.397Z,76.30
2023-05-06T11:50:47.602Z,74.80
2023-05-06T11:53:19.059Z,74.50
2023-05-06T11:55:50.204Z,76.20
2023-05-06T11:58:19.873Z,71.20
2023-05-06T12:00:51.866Z,74.20
2023-05-06T12:03:20.824Z,75.40
2023-05-06T12:05:50.095Z,72.70
2023-05-06T12:08:27.585Z,72.10
2023-05-06T12:11:01.030Z,74.40
2023-05-06T12:13:30.192Z,73.70
2023-05-06T12:16:01.481Z,72.20
2023-05-06T12:18:30.295Z,73.10
2023-05-06T12:21:02.521Z,69.80
2023-05-06T12:23:30.935Z,72.00
2023-05-06T12:26:05.781Z,71.90
2023-05-06T12:28:37.371Z,74.00
2023-05-06T12:31:20.415Z,74.80
2023-05-06T12:33:50.554Z,74.90
2023-05-06T12:36:19.138Z,74.40
2023-05-06T12:38:57.924Z,75.20
2023-05-06T12:41:39.389Z,74.10
2023-05-06T12:44:33.328Z,67.90
2023-05-06T12:47:03.756Z,69.90
2023-05-06T12:49:52.154Z,69.30
2023-05-06T12:52:22.676Z,68.10
2023-05-06T12:54:53.117Z,70.10
2023-05-06T12:57:22.941Z,69.70
2023-05-06T12:59:51.450Z,71.20
2023-05-06T13:02:20.464Z,67.70
2023-05-06T13:04:48.763Z,69.10
2023-05-06T13:07:17.098Z,72.50
2023-05-06T13:09:45.443Z,71.60
2023-05-06T13:12:13.657Z,71.60
2023-05-06T13:14:43.256Z,71.90
2023-05-06T13:17:11.599Z,71.30
2023-05-06T13:19:40.007Z,68.20
2023-05-06T13:22:08.253Z,66.20
2023-05-06T13:24:36.516Z,68.10
2023-05-06T13:27:04.827Z,68.40
2023-05-06T13:29:33.055Z,72.20
2023-05-06T13:32:05.169Z,68.80
2023-05-06T13:34:34.520Z,71.70
2023-05-06T13:37:02.823Z,72.80
2023-05-06T13:39:31.068Z,73.40
2023-05-06T13:41:59.253Z,73.60
2023-05-06T13:44:27.809Z,67.70
2023-05-06T13:46:56.243Z,70.10
2023-05-06T13:49:25.917Z,71.60
2023-05-06T13:51:54.346Z,73.70
2023-05-06T13:54:22.549Z,72.60
2023-05-06T13:56:50.849Z,74.60
2023-05-06T13:59:19.092Z,69.40
2023-05-06T14:01:49.537Z,71.80
2023-05-06T14:04:17.822Z,71.90
2023-05-06T14:06:47.581Z,74.10
2023-05-06T14:09:15.798Z,71.20
2023-05-06T14:11:44.222Z,69.80
2023-05-06T14:14:12.486Z,70.70
2023-05-06T14:16:40.695Z,70.90
2023-05-06T14:19:11.044Z,68.00
2023-05-06T14:21:39.236Z,67.50
2023-05-06T14:24:10.815Z,70.90
2023-05-06T14:26:40.357Z,71.70
2023-05-06T14:29:09.005Z,70.40
2023-05-06T14:31:37.285Z,72.20
2023-05-06T14:34:06.068Z,73.90
2023-05-06T14:36:34.373Z,68.70
2023-05-06T14:39:02.646Z,69.60
2023-05-06T14:41:32.201Z,70.10
2023-05-06T14:44:00.393Z,70.80
2023-05-06T14:46:29.736Z,72.70
2023-05-06T14:48:58.189Z,74.40
2023-05-06T14:51:26.454Z,74.20
2023-05-06T14:53:54.697Z,74.90
2023-05-06T14:56:22.958Z,75.70
2023-05-06T14:58:52.838Z,76.80
2023-05-06T15:01:21.148Z,76.40
2023-05-06T15:03:50.733Z,76.20
2023-05-06T15:06:19.093Z,79.80
2023-05-06T15:08:47.349Z,81.20
2023-05-06T15:11:15.886Z,82.60
2023-05-06T15:13:44.093Z,84.20
2023-05-06T15:16:13.823Z,83.70
2023-05-06T15:18:42.837Z,83.90
2023-05-06T15:21:13.246Z,84.40
2023-05-06T15:23:41.586Z,85.40
2023-05-06T15:26:09.813Z,85.70
2023-05-06T15:28:38.065Z,87.40
2023-05-06T15:31:06.577Z,87.00
2023-05-06T15:33:36.436Z,87.70
2023-05-06T15:36:05.008Z,87.20
2023-05-06T15:39:00.409Z,87.20
2023-05-06T15:41:30.574Z,87.30
2023-05-06T15:44:00.423Z,87.60
2023-05-06T15:46:29.751Z,87.70
2023-05-06T15:49:22.337Z,87.60
2023-05-06T15:51:47.810Z,87.60
2023-05-06T15:54:19.066Z,86.90
2023-05-06T15:56:47.775Z,87.30
2023-05-06T15:59:16.469Z,87.50
2023-05-06T16:04:18.813Z,87.20
2023-05-06T16:06:47.193Z,86.70
2023-05-06T16:09:15.621Z,86.80
2023-05-06T16:11:43.856Z,86.70
2023-05-06T16:14:12.077Z,86.80
2023-05-06T16:16:40.346Z,86.60
2023-05-06T16:19:08.869Z,86.70
2023-05-06T16:21:38.531Z,87.10
2023-05-06T16:24:07.341Z,87.10
2023-05-06T16:26:35.511Z,87.20
2023-05-06T16:29:03.782Z,86.20
2023-05-06T16:31:33.281Z,86.90
2023-05-06T16:34:01.596Z,86.50
2023-05-06T16:36:29.996Z,86.60
2023-05-06T16:38:59.622Z,86.10
2023-05-06T16:41:28.169Z,87.00
2023-05-06T16:43:56.550Z,87.30
2023-05-06T16:46:26.227Z,87.70
2023-05-06T16:48:55.328Z,88.20
2023-05-06T16:51:24.219Z,86.90
2023-05-06T16:53:52.429Z,87.40
2023-05-06T16:56:22.700Z,87.20
2023-05-06T16:58:51.168Z,87.80
2023-05-06T17:01:19.492Z,87.80
2023-05-06T17:03:47.701Z,87.80
2023-05-06T17:06:16.065Z,88.20
2023-05-06T17:08:44.278Z,87.70
2023-05-06T17:11:12.481Z,88.00
2023-05-06T17:13:42.011Z,88.10
2023-05-06T17:16:10.302Z,87.90
2023-05-06T17:18:38.582Z,88.10
2023-05-06T17:21:09.242Z,88.10
2023-05-06T17:23:37.480Z,88.20
2023-05-06T17:26:10.078Z,87.70
2023-05-06T17:28:38.868Z,88.10
2023-05-06T17:31:08.610Z,88.50
2023-05-06T17:33:37.065Z,88.50
2023-05-06T17:36:05.796Z,87.70
2023-05-06T17:38:34.258Z,88.30
2023-05-06T17:41:02.462Z,88.40
2023-05-06T17:43:30.692Z,88.30
2023-05-06T17:45:58.997Z,88.10
2023-05-06T17:48:28.792Z,88.30
2023-05-06T17:51:02.075Z,88.90
2023-05-06T17:53:32.320Z,89.00
2023-05-06T17:56:00.518Z,88.90
2023-05-06T17:58:28.784Z,89.10
2023-05-06T18:00:57.441Z,89.90
2023-05-06T18:03:26.073Z,89.90
2023-05-06T18:05:55.892Z,90.50
2023-05-06T18:08:24.085Z,90.60
2023-05-06T18:10:52.267Z,90.90
2023-05-06T18:13:20.608Z,90.70
2023-05-06T18:15:48.864Z,90.70
2023-05-06T18:18:17.147Z,90.60
2023-05-06T18:20:45.327Z,90.70
2023-05-06T18:23:14.845Z,90.30
2023-05-06T18:25:43.142Z,90.70
2023-05-06T18:28:11.397Z,91.00
2023-05-06T18:30:39.698Z,91.20
2023-05-06T18:33:08.007Z,91.20
2023-05-06T18:35:36.272Z,91.00
2023-05-06T18:38:04.695Z,91.40
2023-05-06T18:40:35.206Z,91.50
2023-05-06T18:43:03.482Z,91.70
2023-05-06T18:45:31.806Z,91.60
2023-05-06T18:48:00.152Z,91.80
2023-05-06T18:50:28.439Z,91.80
2023-05-06T18:52:56.835Z,91.80
2023-05-06T18:55:25.181Z,91.60
2023-05-06T18:57:54.810Z,91.80
2023-05-06T19:00:24.193Z,91.80
2023-05-06T19:02:52.541Z,91.90
2023-05-06T19:05:21.156Z,91.90
2023-05-06T19:07:49.412Z,91.80
2023-05-06T19:10:17.898Z,91.90
2023-05-06T19:12:46.712Z,92.00
2023-05-06T19:15:18.962Z,92.10
2023-05-06T19:17:47.414Z,92.10
2023-05-06T19:20:15.977Z,92.20
2023-05-06T19:22:44.504Z,92.30
2023-05-06T19:25:13.055Z,92.10
2023-05-06T19:27:41.474Z,92.20
2023-05-06T19:30:11.202Z,92.10
2023-05-06T19:32:40.857Z,92.10
2023-05-06T19:35:11.108Z,92.30
2023-05-06T19:37:39.533Z,92.10
2023-05-06T19:40:09.566Z,92.10
2023-05-06T19:42:37.805Z,92.00
2023-05-06T19:45:09.821Z,92.10
2023-05-06T19:47:39.884Z,92.30
2023-05-06T19:50:09.928Z,92.30
2023-05-06T19:52:38.322Z,92.30
2023-05-06T19:55:08.251Z,92.50
2023-05-06T19:57:37.057Z,92.50
2023-05-06T20:00:10.188Z,92.50
2023-05-06T20:02:40.212Z,92.50
2023-05-06T20:05:09.439Z,92.60
2023-05-06T20:07:38.342Z,92.70
2023-05-06T20:10:09.631Z,92.70
2023-05-06T20:12:37.892Z,92.70
2023-05-06T20:15:07.812Z,92.60
2023-05-06T20:17:36.153Z,92.20
2023-05-06T20:20:11.295Z,92.20
2023-05-06T20:22:40.445Z,92.50
2023-05-06T20:25:10.606Z,92.50
2023-05-06T20:27:39.249Z,92.60
2023-05-06T20:30:09.729Z,92.70
2023-05-06T20:32:38.559Z,92.60
2023-05-06T20:35:09.868Z,92.70
2023-05-06T20:37:38.793Z,92.80
2023-05-06T20:40:09.750Z,92.80
2023-05-06T20:42:38.295Z,92.80
2023-05-06T20:45:08.419Z,92.80
2023-05-06T20:47:36.866Z,92.90
2023-05-06T20:50:07.389Z,92.90
2023-05-06T20:52:35.945Z,92.90
2023-05-06T20:55:05.797Z,92.90
2023-05-06T20:57:34.123Z,92.90
2023-05-06T21:00:02.342Z,93.00
2023-05-06T21:02:33.034Z,92.90
2023-05-06T21:05:04.278Z,92.90
2023-05-06T21:07:33.874Z,93.00
2023-05-06T21:10:05.810Z,93.00
2023-05-06T21:12:34.284Z,93.00
2023-05-06T21:15:02.838Z,93.00
2023-05-06T21:17:31.125Z,93.00
2023-05-06T21:19:59.475Z,92.90
2023-05-06T21:22:27.805Z,93.00
2023-05-06T21:24:57.329Z,93.00
2023-05-06T21:27:25.543Z,93.00
2023-05-06T21:29:53.830Z,93.00
2023-05-06T21:32:22.133Z,93.00
2023-05-06T21:34:50.343Z,92.90
2023-05-06T21:37:18.630Z,92.70
2023-05-06T21:39:46.869Z,92.80
2023-05-06T21:42:16.503Z,92.70
2023-05-06T21:44:44.916Z,92.50
2023-05-06T21:47:13.115Z,92.40
2023-05-06T21:49:41.331Z,92.30
2023-05-06T21:52:09.520Z,92.40
2023-05-06T21:54:37.735Z,92.00
2023-05-06T21:57:08.045Z,92.00
2023-05-06T21:59:37.937Z,92.10
2023-05-06T22:02:06.314Z,91.90
2023-05-06T22:04:34.697Z,92.00
2023-05-06T22:07:02.936Z,91.80
2023-05-06T22:09:31.187Z,91.90
2023-05-06T22:11:59.398Z,92.00
2023-05-06T22:14:37.433Z,92.00
2023-05-06T22:17:12.573Z,92.10
2023-05-06T22:19:41.816Z,92.10
2023-05-06T22:22:10.453Z,92.00
2023-05-06T22:24:39.371Z,92.00
2023-05-06T22:27:07.559Z,92.00
2023-05-06T22:29:36.044Z,92.10
2023-05-06T22:32:04.772Z,92.00
2023-05-06T22:34:34.497Z,92.10
2023-05-06T22:37:06.154Z,92.20
2023-05-06T22:39:34.365Z,92.10
2023-05-06T22:42:02.570Z,92.10
2023-05-06T22:44:30.768Z,92.10
2023-05-06T22:46:59.042Z,92.00
2023-05-06T22:49:28.834Z,92.10
2023-05-06T22:51:58.899Z,92.10
2023-05-06T22:54:27.239Z,92.10
2023-05-06T22:56:55.554Z,92.10
2023-05-06T22:59:23.775Z,92.00
2023-05-06T23:01:52.155Z,92.00
2023-05-06T23:04:20.936Z,91.90
2023-05-06T23:06:49.191Z,91.80
2023-05-06T23:09:18.745Z,91.70
2023-05-06T23:11:47.283Z,91.90
2023-05-06T23:14:17.333Z,91.80
2023-05-06T23:16:45.576Z,92.00
2023-05-06T23:19:13.823Z,91.70
2023-05-06T23:21:43.793Z,91.60
2023-05-06T23:24:12.614Z,91.60
2023-05-06T23:26:42.164Z,91.60
2023-05-06T23:29:10.478Z,91.70
2023-05-06T23:31:38.765Z,91.80
2023-05-06T23:34:07.199Z,91.90
2023-05-06T23:36:35.618Z,91.70
2023-05-06T23:39:04.141Z,91.90
2023-05-06T23:41:32.486Z,91.80
2023-05-06T23:44:02.020Z,91.90
2023-05-06T23:46:30.246Z,91.90
2023-05-06T23:48:58.792Z,91.80
2023-05-06T23:51:27.553Z,91.80
2023-05-06T23:53:55.768Z,92.00
2023-05-06T23:56:23.940Z,91.90
2023-05-06T23:58:52.144Z,92.00
